sensor_id;sensor_type;location;lat;lon;timestamp;P1;durP1;ratioP1;P2;durP2;ratioP2
53299;SDS011;39187;48.476;8.310;2022-10-16T00:01:13;1.60;;;1.50;;
53299;SDS011;39187;48.476;8.310;2022-10-16T00:03:40;4.90;;;1.60;;
53299;SDS011;39187;48.476;8.310;2022-10-16T00:06:06;1.70;;;1.60;;
53299;SDS011;39187;48.476;8.310;2022-10-16T00:08:33;5.40;;;1.53;;
53299;SDS011;39187;48.476;8.310;2022-10-16T00:11:03;1.77;;;1.33;;
53299;SDS011;39187;48.476;8.310;2022-10-16T00:13:35;1.83;;;1.73;;
53299;SDS011;39187;48.476;8.310;2022-10-16T00:16:03;1.43;;;1.33;;
53299;SDS011;39187;48.476;8.310;2022-10-16T00:18:29;1.20;;;1.20;;
53299;SDS011;39187;48.476;8.310;2022-10-16T00:20:55;1.40;;;1.30;;
53299;SDS011;39187;48.476;8.310;2022-10-16T00:23:26;1.40;;;1.30;;
53299;SDS011;39187;48.476;8.310;2022-10-16T00:25:59;2.60;;;1.20;;
53299;SDS011;39187;48.476;8.310;2022-10-16T00:28:27;0.90;;;0.90;;
53299;SDS011;39187;48.476;8.310;2022-10-16T00:30:53;1.27;;;1.17;;
53299;SDS011;39187;48.476;8.310;2022-10-16T00:33:19;1.33;;;1.23;;
53299;SDS011;39187;48.476;8.310;2022-10-16T00:35:45;1.23;;;1.13;;
53299;SDS011;39187;48.476;8.310;2022-10-16T00:38:11;1.33;;;1.33;;
53299;SDS011;39187;48.476;8.310;2022-10-16T00:40:37;5.03;;;1.20;;
53299;SDS011;39187;48.476;8.310;2022-10-16T00:43:07;1.00;;;1.00;;
53299;SDS011;39187;48.476;8.310;2022-10-16T00:45:37;1.07;;;1.07;;
53299;SDS011;39187;48.476;8.310;2022-10-16T00:48:03;3.07;;;1.20;;
53299;SDS011;39187;48.476;8.310;2022-10-16T00:52:56;1.90;;;1.10;;
53299;SDS011;39187;48.476;8.310;2022-10-16T00:55:23;1.50;;;1.20;;
53299;SDS011;39187;48.476;8.310;2022-10-16T00:57:50;1.93;;;1.30;;
53299;SDS011;39187;48.476;8.310;2022-10-16T01:00:18;1.47;;;0.90;;
53299;SDS011;39187;48.476;8.310;2022-10-16T01:02:51;3.27;;;1.20;;
53299;SDS011;39187;48.476;8.310;2022-10-16T01:05:22;1.27;;;1.17;;
53299;SDS011;39187;48.476;8.310;2022-10-16T01:07:58;0.90;;;0.90;;
53299;SDS011;39187;48.476;8.310;2022-10-16T01:15:46;1.13;;;1.07;;
53299;SDS011;39187;48.476;8.310;2022-10-16T01:21:13;1.10;;;1.10;;
53299;SDS011;39187;48.476;8.310;2022-10-16T01:29:24;1.20;;;1.10;;
53299;SDS011;39187;48.476;8.310;2022-10-16T01:31:56;2.07;;;1.00;;
53299;SDS011;39187;48.476;8.310;2022-10-16T01:34:29;1.23;;;1.00;;
53299;SDS011;39187;48.476;8.310;2022-10-16T01:37:05;1.00;;;1.00;;
53299;SDS011;39187;48.476;8.310;2022-10-16T01:39:35;1.10;;;0.90;;
53299;SDS011;39187;48.476;8.310;2022-10-16T01:42:05;1.00;;;1.00;;
53299;SDS011;39187;48.476;8.310;2022-10-16T01:44:34;1.30;;;1.30;;
53299;SDS011;39187;48.476;8.310;2022-10-16T01:47:02;1.60;;;1.50;;
53299;SDS011;39187;48.476;8.310;2022-10-16T01:49:31;1.20;;;1.20;;
53299;SDS011;39187;48.476;8.310;2022-10-16T01:52:00;1.20;;;1.10;;
53299;SDS011;39187;48.476;8.310;2022-10-16T01:54:30;0.90;;;0.90;;
53299;SDS011;39187;48.476;8.310;2022-10-16T01:56:58;5.20;;;1.20;;
53299;SDS011;39187;48.476;8.310;2022-10-16T01:59:26;1.70;;;1.60;;
53299;SDS011;39187;48.476;8.310;2022-10-16T02:01:57;4.70;;;1.07;;
53299;SDS011;39187;48.476;8.310;2022-10-16T02:04:27;3.23;;;1.20;;
53299;SDS011;39187;48.476;8.310;2022-10-16T02:07:03;1.30;;;1.20;;
53299;SDS011;39187;48.476;8.310;2022-10-16T02:09:29;1.67;;;1.00;;
53299;SDS011;39187;48.476;8.310;2022-10-16T02:11:58;3.37;;;1.40;;
53299;SDS011;39187;48.476;8.310;2022-10-16T02:14:28;0.97;;;0.97;;
53299;SDS011;39187;48.476;8.310;2022-10-16T02:16:54;1.93;;;1.23;;
53299;SDS011;39187;48.476;8.310;2022-10-16T02:19:20;1.53;;;1.43;;
53299;SDS011;39187;48.476;8.310;2022-10-16T02:21:51;1.10;;;1.10;;
53299;SDS011;39187;48.476;8.310;2022-10-16T02:26:56;4.50;;;1.40;;
53299;SDS011;39187;48.476;8.310;2022-10-16T02:29:28;1.50;;;1.43;;
53299;SDS011;39187;48.476;8.310;2022-10-16T02:31:55;1.40;;;1.30;;
53299;SDS011;39187;48.476;8.310;2022-10-16T02:34:26;1.83;;;1.73;;
53299;SDS011;39187;48.476;8.310;2022-10-16T02:36:54;1.57;;;1.47;;
53299;SDS011;39187;48.476;8.310;2022-10-16T02:39:22;2.10;;;1.53;;
53299;SDS011;39187;48.476;8.310;2022-10-16T02:41:48;1.60;;;1.50;;
53299;SDS011;39187;48.476;8.310;2022-10-16T02:44:13;1.50;;;1.40;;
53299;SDS011;39187;48.476;8.310;2022-10-16T02:46:39;1.60;;;1.50;;
53299;SDS011;39187;48.476;8.310;2022-10-16T02:49:05;2.67;;;1.60;;
53299;SDS011;39187;48.476;8.310;2022-10-16T02:51:30;1.20;;;1.17;;
53299;SDS011;39187;48.476;8.310;2022-10-16T02:53:56;2.03;;;1.40;;
53299;SDS011;39187;48.476;8.310;2022-10-16T02:56:21;1.30;;;1.23;;
53299;SDS011;39187;48.476;8.310;2022-10-16T02:58:47;1.37;;;1.30;;
53299;SDS011;39187;48.476;8.310;2022-10-16T03:01:12;2.20;;;1.67;;
53299;SDS011;39187;48.476;8.310;2022-10-16T03:03:39;4.10;;;2.23;;
53299;SDS011;39187;48.476;8.310;2022-10-16T03:06:04;1.73;;;1.50;;
53299;SDS011;39187;48.476;8.310;2022-10-16T03:08:30;2.80;;;2.07;;
53299;SDS011;39187;48.476;8.310;2022-10-16T03:10:56;1.70;;;1.13;;
53299;SDS011;39187;48.476;8.310;2022-10-16T03:13:22;1.17;;;0.90;;
53299;SDS011;39187;48.476;8.310;2022-10-16T03:15:47;2.97;;;1.63;;
53299;SDS011;39187;48.476;8.310;2022-10-16T03:18:13;1.37;;;1.27;;
53299;SDS011;39187;48.476;8.310;2022-10-16T03:20:38;1.70;;;1.03;;
53299;SDS011;39187;48.476;8.310;2022-10-16T03:23:04;1.20;;;1.10;;
53299;SDS011;39187;48.476;8.310;2022-10-16T03:28:12;1.37;;;1.27;;
53299;SDS011;39187;48.476;8.310;2022-10-16T03:30:37;1.40;;;1.30;;
53299;SDS011;39187;48.476;8.310;2022-10-16T03:33:04;1.30;;;1.20;;
53299;SDS011;39187;48.476;8.310;2022-10-16T03:35:31;4.50;;;1.20;;
53299;SDS011;39187;48.476;8.310;2022-10-16T03:37:58;1.80;;;0.90;;
53299;SDS011;39187;48.476;8.310;2022-10-16T03:40:23;2.47;;;1.00;;
53299;SDS011;39187;48.476;8.310;2022-10-16T03:42:49;3.07;;;1.20;;
53299;SDS011;39187;48.476;8.310;2022-10-16T03:45:14;1.30;;;1.20;;
53299;SDS011;39187;48.476;8.310;2022-10-16T03:47:40;4.07;;;0.97;;
53299;SDS011;39187;48.476;8.310;2022-10-16T03:50:06;1.50;;;1.40;;
53299;SDS011;39187;48.476;8.310;2022-10-16T03:52:32;2.90;;;1.20;;
53299;SDS011;39187;48.476;8.310;2022-10-16T03:54:58;1.20;;;1.10;;
53299;SDS011;39187;48.476;8.310;2022-10-16T03:57:24;1.23;;;1.23;;
53299;SDS011;39187;48.476;8.310;2022-10-16T03:59:49;5.07;;;1.30;;
53299;SDS011;39187;48.476;8.310;2022-10-16T04:02:15;1.40;;;1.30;;
53299;SDS011;39187;48.476;8.310;2022-10-16T04:04:41;1.40;;;1.30;;
53299;SDS011;39187;48.476;8.310;2022-10-16T04:07:06;4.40;;;1.43;;
53299;SDS011;39187;48.476;8.310;2022-10-16T04:09:32;3.93;;;0.93;;
53299;SDS011;39187;48.476;8.310;2022-10-16T04:11:57;4.67;;;1.30;;
53299;SDS011;39187;48.476;8.310;2022-10-16T04:14:23;1.73;;;1.63;;
53299;SDS011;39187;48.476;8.310;2022-10-16T04:16:48;1.30;;;1.20;;
53299;SDS011;39187;48.476;8.310;2022-10-16T04:19:14;1.40;;;1.40;;
53299;SDS011;39187;48.476;8.310;2022-10-16T04:21:39;2.60;;;1.57;;
53299;SDS011;39187;48.476;8.310;2022-10-16T04:24:05;1.10;;;1.10;;
53299;SDS011;39187;48.476;8.310;2022-10-16T04:26:31;1.03;;;1.03;;
53299;SDS011;39187;48.476;8.310;2022-10-16T04:28:57;1.47;;;1.37;;
53299;SDS011;39187;48.476;8.310;2022-10-16T04:31:22;1.10;;;1.00;;
53299;SDS011;39187;48.476;8.310;2022-10-16T04:33:48;3.73;;;1.57;;
53299;SDS011;39187;48.476;8.310;2022-10-16T04:36:13;1.50;;;1.30;;
53299;SDS011;39187;48.476;8.310;2022-10-16T04:38:39;1.50;;;1.40;;
53299;SDS011;39187;48.476;8.310;2022-10-16T04:41:07;3.33;;;1.40;;
53299;SDS011;39187;48.476;8.310;2022-10-16T04:43:33;6.27;;;1.67;;
53299;SDS011;39187;48.476;8.310;2022-10-16T04:45:59;1.20;;;1.10;;
53299;SDS011;39187;48.476;8.310;2022-10-16T04:48:25;1.37;;;1.00;;
53299;SDS011;39187;48.476;8.310;2022-10-16T04:50:50;1.57;;;1.47;;
53299;SDS011;39187;48.476;8.310;2022-10-16T04:53:16;2.10;;;1.60;;
53299;SDS011;39187;48.476;8.310;2022-10-16T04:55:42;1.97;;;1.07;;
53299;SDS011;39187;48.476;8.310;2022-10-16T04:58:07;2.30;;;1.23;;
53299;SDS011;39187;48.476;8.310;2022-10-16T05:00:33;4.97;;;1.60;;
53299;SDS011;39187;48.476;8.310;2022-10-16T05:02:59;1.63;;;1.50;;
53299;SDS011;39187;48.476;8.310;2022-10-16T05:05:26;6.10;;;1.00;;
53299;SDS011;39187;48.476;8.310;2022-10-16T05:07:52;1.43;;;1.33;;
53299;SDS011;39187;48.476;8.310;2022-10-16T05:10:18;1.57;;;1.10;;
53299;SDS011;39187;48.476;8.310;2022-10-16T05:12:43;1.87;;;1.50;;
53299;SDS011;39187;48.476;8.310;2022-10-16T05:15:09;1.40;;;1.30;;
53299;SDS011;39187;48.476;8.310;2022-10-16T05:17:35;4.43;;;1.30;;
53299;SDS011;39187;48.476;8.310;2022-10-16T05:20:01;0.87;;;0.87;;
53299;SDS011;39187;48.476;8.310;2022-10-16T05:22:28;2.83;;;1.20;;
53299;SDS011;39187;48.476;8.310;2022-10-16T05:24:53;1.70;;;1.60;;
53299;SDS011;39187;48.476;8.310;2022-10-16T05:27:19;1.57;;;1.47;;
53299;SDS011;39187;48.476;8.310;2022-10-16T05:29:45;1.60;;;1.50;;
53299;SDS011;39187;48.476;8.310;2022-10-16T05:32:12;1.47;;;1.37;;
53299;SDS011;39187;48.476;8.310;2022-10-16T05:34:38;1.70;;;1.60;;
53299;SDS011;39187;48.476;8.310;2022-10-16T05:37:03;2.73;;;1.40;;
53299;SDS011;39187;48.476;8.310;2022-10-16T05:39:29;1.73;;;1.63;;
53299;SDS011;39187;48.476;8.310;2022-10-16T05:41:54;2.17;;;1.00;;
53299;SDS011;39187;48.476;8.310;2022-10-16T05:44:20;2.23;;;1.80;;
53299;SDS011;39187;48.476;8.310;2022-10-16T05:46:46;4.70;;;1.37;;
53299;SDS011;39187;48.476;8.310;2022-10-16T05:49:11;5.60;;;1.20;;
53299;SDS011;39187;48.476;8.310;2022-10-16T05:51:37;1.43;;;1.33;;
53299;SDS011;39187;48.476;8.310;2022-10-16T05:54:03;1.40;;;1.30;;
53299;SDS011;39187;48.476;8.310;2022-10-16T05:56:29;1.53;;;1.43;;
53299;SDS011;39187;48.476;8.310;2022-10-16T05:58:54;1.20;;;1.10;;
53299;SDS011;39187;48.476;8.310;2022-10-16T06:01:20;1.47;;;1.33;;
53299;SDS011;39187;48.476;8.310;2022-10-16T06:03:49;2.03;;;1.87;;
53299;SDS011;39187;48.476;8.310;2022-10-16T06:06:21;1.30;;;1.20;;
53299;SDS011;39187;48.476;8.310;2022-10-16T06:08:50;1.50;;;1.40;;
53299;SDS011;39187;48.476;8.310;2022-10-16T06:11:18;1.23;;;1.20;;
53299;SDS011;39187;48.476;8.310;2022-10-16T06:13:51;1.50;;;1.40;;
53299;SDS011;39187;48.476;8.310;2022-10-16T06:16:17;4.20;;;1.00;;
53299;SDS011;39187;48.476;8.310;2022-10-16T06:18:43;2.40;;;1.40;;
53299;SDS011;39187;48.476;8.310;2022-10-16T06:21:14;2.57;;;1.40;;
53299;SDS011;39187;48.476;8.310;2022-10-16T06:23:42;1.83;;;1.37;;
53299;SDS011;39187;48.476;8.310;2022-10-16T06:26:08;3.23;;;2.10;;
53299;SDS011;39187;48.476;8.310;2022-10-16T06:28:35;1.20;;;1.10;;
53299;SDS011;39187;48.476;8.310;2022-10-16T06:31:02;1.37;;;1.27;;
53299;SDS011;39187;48.476;8.310;2022-10-16T06:33:29;4.10;;;1.10;;
53299;SDS011;39187;48.476;8.310;2022-10-16T06:36:00;1.50;;;1.40;;
53299;SDS011;39187;48.476;8.310;2022-10-16T06:38:29;1.63;;;1.30;;
53299;SDS011;39187;48.476;8.310;2022-10-16T06:40:55;6.57;;;1.37;;
53299;SDS011;39187;48.476;8.310;2022-10-16T06:43:20;8.60;;;1.50;;
53299;SDS011;39187;48.476;8.310;2022-10-16T06:45:55;1.37;;;1.27;;
53299;SDS011;39187;48.476;8.310;2022-10-16T06:48:22;2.63;;;1.40;;
53299;SDS011;39187;48.476;8.310;2022-10-16T06:53:45;8.97;;;1.83;;
53299;SDS011;39187;48.476;8.310;2022-10-16T06:58:46;1.63;;;1.53;;
53299;SDS011;39187;48.476;8.310;2022-10-16T07:01:13;5.23;;;1.73;;
53299;SDS011;39187;48.476;8.310;2022-10-16T07:03:40;1.30;;;1.20;;
53299;SDS011;39187;48.476;8.310;2022-10-16T07:06:07;1.37;;;1.27;;
53299;SDS011;39187;48.476;8.310;2022-10-16T07:08:35;2.60;;;1.30;;
53299;SDS011;39187;48.476;8.310;2022-10-16T07:11:03;4.40;;;1.43;;
53299;SDS011;39187;48.476;8.310;2022-10-16T07:13:34;2.60;;;1.30;;
53299;SDS011;39187;48.476;8.310;2022-10-16T07:16:26;1.30;;;1.20;;
53299;SDS011;39187;48.476;8.310;2022-10-16T07:18:51;6.93;;;1.13;;
53299;SDS011;39187;48.476;8.310;2022-10-16T07:21:23;4.00;;;1.23;;
53299;SDS011;39187;48.476;8.310;2022-10-16T07:23:54;1.80;;;1.67;;
53299;SDS011;39187;48.476;8.310;2022-10-16T07:26:22;1.83;;;1.50;;
53299;SDS011;39187;48.476;8.310;2022-10-16T07:28:49;1.23;;;1.13;;
53299;SDS011;39187;48.476;8.310;2022-10-16T07:31:15;3.70;;;1.30;;
53299;SDS011;39187;48.476;8.310;2022-10-16T07:33:42;4.27;;;1.27;;
53299;SDS011;39187;48.476;8.310;2022-10-16T07:36:09;1.43;;;1.33;;
53299;SDS011;39187;48.476;8.310;2022-10-16T07:38:35;2.30;;;1.57;;
53299;SDS011;39187;48.476;8.310;2022-10-16T07:41:02;1.70;;;1.60;;
53299;SDS011;39187;48.476;8.310;2022-10-16T07:43:32;1.53;;;1.43;;
53299;SDS011;39187;48.476;8.310;2022-10-16T07:45:58;8.93;;;1.60;;
53299;SDS011;39187;48.476;8.310;2022-10-16T07:48:26;2.77;;;1.40;;
53299;SDS011;39187;48.476;8.310;2022-10-16T07:50:56;1.40;;;1.30;;
53299;SDS011;39187;48.476;8.310;2022-10-16T07:53:23;1.33;;;1.27;;
53299;SDS011;39187;48.476;8.310;2022-10-16T07:55:48;1.87;;;1.77;;
53299;SDS011;39187;48.476;8.310;2022-10-16T07:58:14;5.90;;;1.53;;
53299;SDS011;39187;48.476;8.310;2022-10-16T08:00:39;1.43;;;1.33;;
53299;SDS011;39187;48.476;8.310;2022-10-16T08:03:05;1.40;;;1.30;;
53299;SDS011;39187;48.476;8.310;2022-10-16T08:05:31;1.40;;;1.23;;
53299;SDS011;39187;48.476;8.310;2022-10-16T08:07:58;1.30;;;1.20;;
53299;SDS011;39187;48.476;8.310;2022-10-16T08:10:24;1.53;;;1.43;;
53299;SDS011;39187;48.476;8.310;2022-10-16T08:12:52;1.20;;;1.10;;
53299;SDS011;39187;48.476;8.310;2022-10-16T08:15:18;1.37;;;1.27;;
53299;SDS011;39187;48.476;8.310;2022-10-16T08:17:44;2.30;;;1.33;;
53299;SDS011;39187;48.476;8.310;2022-10-16T08:20:18;1.40;;;1.30;;
53299;SDS011;39187;48.476;8.310;2022-10-16T08:22:44;1.40;;;1.30;;
53299;SDS011;39187;48.476;8.310;2022-10-16T08:25:09;1.97;;;1.87;;
53299;SDS011;39187;48.476;8.310;2022-10-16T08:27:35;1.73;;;1.63;;
53299;SDS011;39187;48.476;8.310;2022-10-16T08:30:00;1.40;;;1.30;;
53299;SDS011;39187;48.476;8.310;2022-10-16T08:32:26;1.63;;;1.53;;
53299;SDS011;39187;48.476;8.310;2022-10-16T08:34:51;3.33;;;1.47;;
53299;SDS011;39187;48.476;8.310;2022-10-16T08:37:17;5.80;;;1.50;;
53299;SDS011;39187;48.476;8.310;2022-10-16T08:39:42;2.20;;;1.23;;
53299;SDS011;39187;48.476;8.310;2022-10-16T08:48:06;2.90;;;1.70;;
53299;SDS011;39187;48.476;8.310;2022-10-16T08:50:40;1.63;;;1.53;;
53299;SDS011;39187;48.476;8.310;2022-10-16T08:53:06;1.63;;;1.50;;
53299;SDS011;39187;48.476;8.310;2022-10-16T08:55:46;1.50;;;1.40;;
53299;SDS011;39187;48.476;8.310;2022-10-16T08:58:19;1.23;;;1.13;;
53299;SDS011;39187;48.476;8.310;2022-10-16T09:00:54;1.97;;;1.60;;
53299;SDS011;39187;48.476;8.310;2022-10-16T09:17:18;2.40;;;2.20;;
53299;SDS011;39187;48.476;8.310;2022-10-16T09:25:30;1.70;;;1.60;;
53299;SDS011;39187;48.476;8.310;2022-10-16T09:27:57;2.33;;;2.23;;
53299;SDS011;39187;48.476;8.310;2022-10-16T09:30:23;2.77;;;2.67;;
53299;SDS011;39187;48.476;8.310;2022-10-16T09:32:54;6.93;;;1.20;;
53299;SDS011;39187;48.476;8.310;2022-10-16T09:35:24;1.80;;;1.50;;
53299;SDS011;39187;48.476;8.310;2022-10-16T09:37:56;5.70;;;1.70;;
53299;SDS011;39187;48.476;8.310;2022-10-16T09:40:26;3.43;;;1.40;;
53299;SDS011;39187;48.476;8.310;2022-10-16T09:43:02;6.93;;;1.27;;
53299;SDS011;39187;48.476;8.310;2022-10-16T09:48:50;1.37;;;1.27;;
53299;SDS011;39187;48.476;8.310;2022-10-16T09:51:23;1.37;;;1.00;;
53299;SDS011;39187;48.476;8.310;2022-10-16T09:53:56;2.77;;;2.10;;
53299;SDS011;39187;48.476;8.310;2022-10-16T09:56:29;1.73;;;1.60;;
53299;SDS011;39187;48.476;8.310;2022-10-16T09:59:08;4.83;;;1.70;;
53299;SDS011;39187;48.476;8.310;2022-10-16T10:01:55;2.43;;;1.60;;
53299;SDS011;39187;48.476;8.310;2022-10-16T10:04:24;2.83;;;2.60;;
53299;SDS011;39187;48.476;8.310;2022-10-16T10:06:54;1.70;;;1.60;;
53299;SDS011;39187;48.476;8.310;2022-10-16T10:09:22;7.03;;;2.07;;
53299;SDS011;39187;48.476;8.310;2022-10-16T10:12:28;1.70;;;1.53;;
53299;SDS011;39187;48.476;8.310;2022-10-16T10:15:03;1.63;;;1.53;;
53299;SDS011;39187;48.476;8.310;2022-10-16T10:17:31;1.63;;;1.53;;
53299;SDS011;39187;48.476;8.310;2022-10-16T10:20:01;2.10;;;1.30;;
53299;SDS011;39187;48.476;8.310;2022-10-16T10:22:51;2.80;;;1.57;;
53299;SDS011;39187;48.476;8.310;2022-10-16T10:25:19;2.53;;;2.43;;
53299;SDS011;39187;48.476;8.310;2022-10-16T11:01:16;2.20;;;1.90;;
53299;SDS011;39187;48.476;8.310;2022-10-16T11:07:07;3.50;;;1.60;;
53299;SDS011;39187;48.476;8.310;2022-10-16T11:09:44;3.70;;;1.47;;
53299;SDS011;39187;48.476;8.310;2022-10-16T11:12:17;4.40;;;1.80;;
53299;SDS011;39187;48.476;8.310;2022-10-16T11:14:54;3.97;;;1.90;;
53299;SDS011;39187;48.476;8.310;2022-10-16T11:17:39;1.60;;;1.50;;
53299;SDS011;39187;48.476;8.310;2022-10-16T11:23:01;2.80;;;1.80;;
53299;SDS011;39187;48.476;8.310;2022-10-16T11:25:37;2.27;;;1.50;;
53299;SDS011;39187;48.476;8.310;2022-10-16T11:30:49;2.20;;;1.90;;
53299;SDS011;39187;48.476;8.310;2022-10-16T11:33:22;4.93;;;1.77;;
53299;SDS011;39187;48.476;8.310;2022-10-16T11:36:04;1.90;;;1.80;;
53299;SDS011;39187;48.476;8.310;2022-10-16T11:38:43;1.90;;;1.80;;
53299;SDS011;39187;48.476;8.310;2022-10-16T11:43:49;5.17;;;2.17;;
53299;SDS011;39187;48.476;8.310;2022-10-16T11:46:26;2.37;;;2.17;;
53299;SDS011;39187;48.476;8.310;2022-10-16T11:49:09;5.23;;;2.20;;
53299;SDS011;39187;48.476;8.310;2022-10-16T11:51:40;2.00;;;1.83;;
53299;SDS011;39187;48.476;8.310;2022-10-16T11:54:18;1.90;;;1.80;;
53299;SDS011;39187;48.476;8.310;2022-10-16T11:56:50;2.00;;;1.87;;
53299;SDS011;39187;48.476;8.310;2022-10-16T11:59:26;2.80;;;2.10;;
53299;SDS011;39187;48.476;8.310;2022-10-16T12:02:23;2.03;;;1.93;;
53299;SDS011;39187;48.476;8.310;2022-10-16T12:07:55;2.10;;;2.00;;
53299;SDS011;39187;48.476;8.310;2022-10-16T12:10:25;2.13;;;2.03;;
53299;SDS011;39187;48.476;8.310;2022-10-16T12:12:53;2.20;;;1.97;;
53299;SDS011;39187;48.476;8.310;2022-10-16T12:15:26;3.27;;;1.43;;
53299;SDS011;39187;48.476;8.310;2022-10-16T12:17:53;1.70;;;1.60;;
53299;SDS011;39187;48.476;8.310;2022-10-16T12:20:23;2.60;;;1.80;;
53299;SDS011;39187;48.476;8.310;2022-10-16T12:22:56;2.10;;;2.00;;
53299;SDS011;39187;48.476;8.310;2022-10-16T12:25:38;3.27;;;1.80;;
53299;SDS011;39187;48.476;8.310;2022-10-16T12:30:40;1.73;;;1.63;;
53299;SDS011;39187;48.476;8.310;2022-10-16T12:33:19;2.23;;;2.03;;
53299;SDS011;39187;48.476;8.310;2022-10-16T12:35:48;2.60;;;2.30;;
53299;SDS011;39187;48.476;8.310;2022-10-16T12:38:19;3.27;;;1.93;;
53299;SDS011;39187;48.476;8.310;2022-10-16T12:41:03;3.57;;;2.70;;
53299;SDS011;39187;48.476;8.310;2022-10-16T12:43:40;3.07;;;2.87;;
53299;SDS011;39187;48.476;8.310;2022-10-16T12:48:32;2.53;;;2.30;;
53299;SDS011;39187;48.476;8.310;2022-10-16T12:54:04;5.53;;;2.37;;
53299;SDS011;39187;48.476;8.310;2022-10-16T13:07:53;4.10;;;3.20;;
53299;SDS011;39187;48.476;8.310;2022-10-16T13:10:32;2.67;;;2.40;;
53299;SDS011;39187;48.476;8.310;2022-10-16T13:13:22;2.70;;;2.40;;
53299;SDS011;39187;48.476;8.310;2022-10-16T13:21:26;2.57;;;2.43;;
53299;SDS011;39187;48.476;8.310;2022-10-16T13:24:06;8.13;;;3.00;;
53299;SDS011;39187;48.476;8.310;2022-10-16T13:26:44;3.13;;;2.73;;
53299;SDS011;39187;48.476;8.310;2022-10-16T13:29:13;3.10;;;2.90;;
53299;SDS011;39187;48.476;8.310;2022-10-16T13:31:39;4.67;;;4.47;;
53299;SDS011;39187;48.476;8.310;2022-10-16T13:34:05;3.60;;;3.30;;
53299;SDS011;39187;48.476;8.310;2022-10-16T13:36:49;6.07;;;4.43;;
53299;SDS011;39187;48.476;8.310;2022-10-16T13:44:35;3.00;;;2.80;;
53299;SDS011;39187;48.476;8.310;2022-10-16T13:47:10;5.80;;;2.53;;
53299;SDS011;39187;48.476;8.310;2022-10-16T13:49:44;3.27;;;3.07;;
53299;SDS011;39187;48.476;8.310;2022-10-16T13:52:19;2.70;;;2.60;;
53299;SDS011;39187;48.476;8.310;2022-10-16T13:54:46;3.53;;;2.80;;
53299;SDS011;39187;48.476;8.310;2022-10-16T13:57:13;3.50;;;3.30;;
53299;SDS011;39187;48.476;8.310;2022-10-16T13:59:40;3.00;;;2.60;;
53299;SDS011;39187;48.476;8.310;2022-10-16T14:05:00;3.47;;;3.30;;
53299;SDS011;39187;48.476;8.310;2022-10-16T14:07:30;3.60;;;3.30;;
53299;SDS011;39187;48.476;8.310;2022-10-16T14:10:07;3.20;;;3.10;;
53299;SDS011;39187;48.476;8.310;2022-10-16T14:15:59;6.20;;;5.70;;
53299;SDS011;39187;48.476;8.310;2022-10-16T14:18:28;9.00;;;8.30;;
53299;SDS011;39187;48.476;8.310;2022-10-16T14:20:54;8.87;;;8.17;;
53299;SDS011;39187;48.476;8.310;2022-10-16T14:23:23;6.67;;;6.23;;
53299;SDS011;39187;48.476;8.310;2022-10-16T14:28:39;3.23;;;3.13;;
53299;SDS011;39187;48.476;8.310;2022-10-16T14:31:22;5.30;;;4.97;;
53299;SDS011;39187;48.476;8.310;2022-10-16T14:33:54;3.53;;;3.33;;
53299;SDS011;39187;48.476;8.310;2022-10-16T14:36:20;3.23;;;3.10;;
53299;SDS011;39187;48.476;8.310;2022-10-16T14:39:06;3.10;;;2.90;;
53299;SDS011;39187;48.476;8.310;2022-10-16T14:41:46;2.40;;;2.30;;
53299;SDS011;39187;48.476;8.310;2022-10-16T14:44:14;3.87;;;2.13;;
53299;SDS011;39187;48.476;8.310;2022-10-16T14:46:43;4.00;;;2.53;;
53299;SDS011;39187;48.476;8.310;2022-10-16T14:51:35;3.70;;;2.40;;
53299;SDS011;39187;48.476;8.310;2022-10-16T14:54:02;4.80;;;2.27;;
53299;SDS011;39187;48.476;8.310;2022-10-16T14:56:42;2.30;;;2.10;;
53299;SDS011;39187;48.476;8.310;2022-10-16T14:59:14;3.83;;;2.00;;
53299;SDS011;39187;48.476;8.310;2022-10-16T15:01:46;2.43;;;2.33;;
53299;SDS011;39187;48.476;8.310;2022-10-16T15:04:12;7.53;;;2.30;;
53299;SDS011;39187;48.476;8.310;2022-10-16T15:06:38;4.10;;;2.40;;
53299;SDS011;39187;48.476;8.310;2022-10-16T15:09:04;2.23;;;2.13;;
53299;SDS011;39187;48.476;8.310;2022-10-16T15:11:30;4.27;;;3.10;;
53299;SDS011;39187;48.476;8.310;2022-10-16T15:13:57;4.73;;;2.70;;
53299;SDS011;39187;48.476;8.310;2022-10-16T15:16:23;2.60;;;2.20;;
53299;SDS011;39187;48.476;8.310;2022-10-16T15:18:49;2.53;;;2.00;;
53299;SDS011;39187;48.476;8.310;2022-10-16T15:21:20;2.70;;;2.60;;
53299;SDS011;39187;48.476;8.310;2022-10-16T15:23:51;2.30;;;2.10;;
53299;SDS011;39187;48.476;8.310;2022-10-16T15:26:17;3.30;;;2.53;;
53299;SDS011;39187;48.476;8.310;2022-10-16T15:28:42;4.60;;;2.80;;
53299;SDS011;39187;48.476;8.310;2022-10-16T15:31:11;2.70;;;2.47;;
53299;SDS011;39187;48.476;8.310;2022-10-16T15:33:36;2.60;;;2.40;;
53299;SDS011;39187;48.476;8.310;2022-10-16T15:36:02;9.57;;;2.40;;
53299;SDS011;39187;48.476;8.310;2022-10-16T15:38:32;2.80;;;2.20;;
53299;SDS011;39187;48.476;8.310;2022-10-16T15:40:57;3.83;;;2.50;;
53299;SDS011;39187;48.476;8.310;2022-10-16T15:43:23;2.03;;;1.93;;
53299;SDS011;39187;48.476;8.310;2022-10-16T15:46:04;2.80;;;2.37;;
53299;SDS011;39187;48.476;8.310;2022-10-16T15:48:33;3.00;;;2.80;;
53299;SDS011;39187;48.476;8.310;2022-10-16T15:50:59;6.50;;;5.83;;
53299;SDS011;39187;48.476;8.310;2022-10-16T15:53:25;4.93;;;4.63;;
53299;SDS011;39187;48.476;8.310;2022-10-16T15:55:51;9.30;;;3.27;;
53299;SDS011;39187;48.476;8.310;2022-10-16T15:58:16;8.93;;;4.20;;
53299;SDS011;39187;48.476;8.310;2022-10-16T16:00:42;6.67;;;5.83;;
53299;SDS011;39187;48.476;8.310;2022-10-16T16:03:08;3.17;;;3.07;;
53299;SDS011;39187;48.476;8.310;2022-10-16T16:05:37;3.23;;;2.93;;
53299;SDS011;39187;48.476;8.310;2022-10-16T16:08:04;3.03;;;2.37;;
53299;SDS011;39187;48.476;8.310;2022-10-16T16:10:29;3.20;;;2.90;;
53299;SDS011;39187;48.476;8.310;2022-10-16T16:12:55;2.80;;;2.60;;
53299;SDS011;39187;48.476;8.310;2022-10-16T16:15:21;2.83;;;2.73;;
53299;SDS011;39187;48.476;8.310;2022-10-16T16:17:48;5.17;;;2.50;;
53299;SDS011;39187;48.476;8.310;2022-10-16T16:20:13;3.10;;;2.90;;
53299;SDS011;39187;48.476;8.310;2022-10-16T16:22:39;7.73;;;2.70;;
53299;SDS011;39187;48.476;8.310;2022-10-16T16:25:05;4.90;;;2.30;;
53299;SDS011;39187;48.476;8.310;2022-10-16T16:27:31;3.80;;;3.50;;
53299;SDS011;39187;48.476;8.310;2022-10-16T16:29:59;2.80;;;2.60;;
53299;SDS011;39187;48.476;8.310;2022-10-16T16:32:28;3.40;;;3.10;;
53299;SDS011;39187;48.476;8.310;2022-10-16T16:34:54;4.47;;;4.07;;
53299;SDS011;39187;48.476;8.310;2022-10-16T16:37:20;2.37;;;2.27;;
53299;SDS011;39187;48.476;8.310;2022-10-16T16:39:45;4.37;;;2.10;;
53299;SDS011;39187;48.476;8.310;2022-10-16T16:42:11;2.90;;;2.33;;
53299;SDS011;39187;48.476;8.310;2022-10-16T16:44:36;6.30;;;1.67;;
53299;SDS011;39187;48.476;8.310;2022-10-16T16:47:03;2.40;;;2.00;;
53299;SDS011;39187;48.476;8.310;2022-10-16T16:49:29;2.00;;;1.90;;
53299;SDS011;39187;48.476;8.310;2022-10-16T16:51:55;3.83;;;1.87;;
53299;SDS011;39187;48.476;8.310;2022-10-16T16:54:21;2.23;;;2.03;;
53299;SDS011;39187;48.476;8.310;2022-10-16T16:56:46;5.33;;;4.17;;
53299;SDS011;39187;48.476;8.310;2022-10-16T16:59:13;3.50;;;3.20;;
53299;SDS011;39187;48.476;8.310;2022-10-16T17:01:42;3.20;;;2.50;;
53299;SDS011;39187;48.476;8.310;2022-10-16T17:04:08;3.30;;;3.10;;
53299;SDS011;39187;48.476;8.310;2022-10-16T17:06:33;2.07;;;1.97;;
53299;SDS011;39187;48.476;8.310;2022-10-16T17:09:00;2.73;;;2.63;;
53299;SDS011;39187;48.476;8.310;2022-10-16T17:11:28;3.27;;;2.97;;
53299;SDS011;39187;48.476;8.310;2022-10-16T17:13:54;3.40;;;3.20;;
53299;SDS011;39187;48.476;8.310;2022-10-16T17:16:22;3.50;;;3.37;;
53299;SDS011;39187;48.476;8.310;2022-10-16T17:19:00;3.80;;;2.90;;
53299;SDS011;39187;48.476;8.310;2022-10-16T17:21:27;4.23;;;3.17;;
53299;SDS011;39187;48.476;8.310;2022-10-16T17:23:55;3.20;;;2.60;;